Mary Gorgias — 9HPE9 — position and weather

sailwx.info

Track history (hours):
 
Tides and Currents Weather Stations Pressure Air Temp Water Temp Dewpoint Dewpoint Depression Visibility Wind Speed Wind Dir Waves Ship Positions

Mary Gorgias

Last reported at 2018-Aug-06 19:13 UTC. Time now 2018-Aug-19 23:12 UTC.
Position N 23°14' E 117°40'.
Warning: this ship's position is 13 days out of date.

Length 226 m; draft 7.5 m.

Type: Cargo ship. MMSI: 249308000.

Date/timePositionNaut miles runAvg speedWind from/ knotsBaromVisibWave heightAir tempDewpointWater temp
2018-Aug-06 19:13N 23°14' E 117°40'411.4
2018-Aug-06 18:52N 23°17' E 117°44'411.6
2018-Aug-06 18:30N 23°19' E 117°47'611.8
2018-Aug-06 18:00N 23°23' E 117°53'611.7
2018-Aug-06 17:28N 23°26' E 117°58'611.5
2018-Aug-06 16:59N 23°29' E 118°03'711.6
2018-Aug-06 16:24N 23°33' E 118°09'511.5
2018-Aug-06 15:59N 23°36' E 118°13'711.9
2018-Aug-06 15:22N 23°39' E 118°21'611.9
2018-Aug-06 14:53N 23°42' E 118°26'512.2
2018-Aug-06 14:29N 23°45' E 118°30'612.0
2018-Aug-06 13:57N 23°50' E 118°35'511.6
2018-Aug-06 13:30N 23°53' E 118°39'611.8
2018-Aug-06 13:00N 23°57' E 118°45'612.2
2018-Aug-06 12:30N 24°00' E 118°50'612.5
2018-Aug-06 12:00N 24°04' E 118°56'712.7
2018-Aug-06 11:28N 24°07' E 119°02'613.0
2018-Aug-06 10:59N 24°11' E 119°07'713.0
2018-Aug-06 10:27N 24°16' E 119°13'613.0
2018-Aug-06 10:00N 24°19' E 119°18'612.7
2018-Aug-06 09:30N 24°24' E 119°22'612.7
2018-Aug-06 09:00N 24°29' E 119°27'42310.9
2018-Aug-04 18:16N 30°59' E 122°33'311.1
2018-Aug-04 18:00N 30°59' E 122°30'611.2
2018-Aug-04 17:30N 31°01' E 122°23'510.6
2018-Aug-04 17:00N 31°02' E 122°17'4 8.3
2018-Aug-04 16:30N 31°02' E 122°12'510.4
2018-Aug-04 16:00N 31°03' E 122°07'510.3
2018-Aug-04 15:30N 31°05' E 122°01'5 9.1
2018-Aug-04 15:00N 31°07' E 121°56'713.0
2018-Aug-04 14:29N 31°11' E 121°50'  
Track history (hours):
 
Tides and Currents Weather Stations Pressure Air Temp Water Temp Dewpoint Dewpoint Depression Visibility Wind Speed Wind Dir Waves Ship Positions

Mary Gorgias

Last reported at 2018-Aug-06 19:13 UTC. Time now 2018-Aug-19 23:12 UTC.
Position N 23°14' E 117°40'.
Warning: this ship's position is 13 days out of date.

Length 226 m; draft 7.5 m.

Type: Cargo ship. MMSI: 249308000.

Date/timePositionNaut miles runAvg speedWind from/ knotsBaromVisibWave heightAir tempDewpointWater temp
2018-Aug-06 19:13N 23°14' E 117°40'411.4
2018-Aug-06 18:52N 23°17' E 117°44'411.6
2018-Aug-06 18:30N 23°19' E 117°47'611.8
2018-Aug-06 18:00N 23°23' E 117°53'611.7
2018-Aug-06 17:28N 23°26' E 117°58'611.5
2018-Aug-06 16:59N 23°29' E 118°03'711.6
2018-Aug-06 16:24N 23°33' E 118°09'511.5
2018-Aug-06 15:59N 23°36' E 118°13'711.9
2018-Aug-06 15:22N 23°39' E 118°21'611.9
2018-Aug-06 14:53N 23°42' E 118°26'512.2
2018-Aug-06 14:29N 23°45' E 118°30'612.0
2018-Aug-06 13:57N 23°50' E 118°35'511.6
2018-Aug-06 13:30N 23°53' E 118°39'611.8
2018-Aug-06 13:00N 23°57' E 118°45'612.2
2018-Aug-06 12:30N 24°00' E 118°50'612.5
2018-Aug-06 12:00N 24°04' E 118°56'712.7
2018-Aug-06 11:28N 24°07' E 119°02'613.0
2018-Aug-06 10:59N 24°11' E 119°07'713.0
2018-Aug-06 10:27N 24°16' E 119°13'613.0
2018-Aug-06 10:00N 24°19' E 119°18'612.7
2018-Aug-06 09:30N 24°24' E 119°22'612.7
2018-Aug-06 09:00N 24°29' E 119°27'42310.9
2018-Aug-04 18:16N 30°59' E 122°33'311.1
2018-Aug-04 18:00N 30°59' E 122°30'611.2
2018-Aug-04 17:30N 31°01' E 122°23'510.6
2018-Aug-04 17:00N 31°02' E 122°17'4 8.3
2018-Aug-04 16:30N 31°02' E 122°12'510.4
2018-Aug-04 16:00N 31°03' E 122°07'510.3
2018-Aug-04 15:30N 31°05' E 122°01'5 9.1
2018-Aug-04 15:00N 31°07' E 121°56'713.0
2018-Aug-04 14:29N 31°11' E 121°50'  

Dump ship's entire track history